sensor_id;sensor_type;location;lat;lon;timestamp;pressure;altitude;pressure_sealevel;temperature;humidity
34696;BME280;75243;51.138;17.370;2024-03-17T00:19:38;100608.31;;;4.82;81.74
34696;BME280;75243;51.138;17.370;2024-03-17T00:49:09;100614.56;;;4.36;81.16
34696;BME280;75243;51.138;17.370;2024-03-17T00:56:52;100620.55;;;4.18;81.63
34696;BME280;75243;51.138;17.370;2024-03-17T01:00:01;100613.78;;;4.10;81.56
34696;BME280;75243;51.138;17.370;2024-03-17T01:07:46;100619.16;;;3.96;81.98
34696;BME280;75243;51.138;17.370;2024-03-17T01:11:21;100620.10;;;3.93;82.52
34696;BME280;75243;51.138;17.370;2024-03-17T01:40:31;100638.83;;;3.58;82.58
34696;BME280;75243;51.138;17.370;2024-03-17T02:13:16;100658.17;;;3.17;83.50
34696;BME280;75243;51.138;17.370;2024-03-17T02:29:22;100660.80;;;2.99;84.02
34696;BME280;75243;51.138;17.370;2024-03-17T02:33:27;100656.10;;;2.93;83.95
34696;BME280;75243;51.138;17.370;2024-03-17T02:37:02;100660.31;;;2.88;84.19
34696;BME280;75243;51.138;17.370;2024-03-17T02:40:09;100661.33;;;2.84;84.14
34696;BME280;75243;51.138;17.370;2024-03-17T02:43:11;100663.12;;;2.80;84.45
34696;BME280;75243;51.138;17.370;2024-03-17T02:46:24;100663.42;;;2.78;84.57
34696;BME280;75243;51.138;17.370;2024-03-17T02:49:28;100664.33;;;2.75;84.70
34696;BME280;75243;51.138;17.370;2024-03-17T02:52:56;100665.33;;;2.74;84.77
34696;BME280;75243;51.138;17.370;2024-03-17T03:04:27;100680.89;;;2.60;84.63
34696;BME280;75243;51.138;17.370;2024-03-17T03:07:49;100684.48;;;2.56;84.64
34696;BME280;75243;51.138;17.370;2024-03-17T03:14:45;100686.12;;;2.44;84.60
34696;BME280;75243;51.138;17.370;2024-03-17T03:17:52;100683.90;;;2.41;84.95
34696;BME280;75243;51.138;17.370;2024-03-17T03:21:14;100684.73;;;2.36;85.10
34696;BME280;75243;51.138;17.370;2024-03-17T03:24:17;100687.31;;;2.31;84.90
34696;BME280;75243;51.138;17.370;2024-03-17T03:30:40;100686.05;;;2.24;85.08
34696;BME280;75243;51.138;17.370;2024-03-17T03:38:00;100688.23;;;2.20;85.09
34696;BME280;75243;51.138;17.370;2024-03-17T03:41:41;100689.27;;;2.20;84.78
34696;BME280;75243;51.138;17.370;2024-03-17T03:45:06;100686.52;;;2.17;84.71
34696;BME280;75243;51.138;17.370;2024-03-17T03:48:56;100684.45;;;2.11;84.81
34696;BME280;75243;51.138;17.370;2024-03-17T04:06:00;100688.20;;;1.90;85.04
34696;BME280;75243;51.138;17.370;2024-03-17T04:23:09;100684.48;;;1.74;85.13
34696;BME280;75243;51.138;17.370;2024-03-17T04:26:30;100689.96;;;1.73;85.35
34696;BME280;75243;51.138;17.370;2024-03-17T04:30:04;100685.92;;;1.71;85.31
34696;BME280;75243;51.138;17.370;2024-03-17T04:33:13;100683.70;;;1.68;85.49
34696;BME280;75243;51.138;17.370;2024-03-17T04:53:34;100702.17;;;1.57;86.74
34696;BME280;75243;51.138;17.370;2024-03-17T04:56:55;100706.02;;;1.56;86.68
34696;BME280;75243;51.138;17.370;2024-03-17T05:12:04;100708.46;;;1.85;86.09
34696;BME280;75243;51.138;17.370;2024-03-17T05:28:28;100724.77;;;2.05;86.70
34696;BME280;75243;51.138;17.370;2024-03-17T05:32:06;100727.48;;;2.34;86.64
34696;BME280;75243;51.138;17.370;2024-03-17T05:50:31;100734.91;;;4.08;84.58
34696;BME280;75243;51.138;17.370;2024-03-17T05:53:41;100733.89;;;4.19;84.41
34696;BME280;75243;51.138;17.370;2024-03-17T05:56:52;100732.88;;;4.48;83.96
34696;BME280;75243;51.138;17.370;2024-03-17T06:00:07;100737.37;;;4.79;83.40
34696;BME280;75243;51.138;17.370;2024-03-17T06:06:40;100734.98;;;5.43;81.76
34696;BME280;75243;51.138;17.370;2024-03-17T06:09:47;100740.70;;;5.71;81.56
34696;BME280;75243;51.138;17.370;2024-03-17T06:16:39;100739.87;;;6.09;79.68
34696;BME280;75243;51.138;17.370;2024-03-17T06:27:30;100745.89;;;6.58;76.82
34696;BME280;75243;51.138;17.370;2024-03-17T06:31:00;100747.06;;;6.72;77.30
34696;BME280;75243;51.138;17.370;2024-03-17T06:38:27;100753.67;;;7.07;75.52
34696;BME280;75243;51.138;17.370;2024-03-17T06:41:31;100759.02;;;7.08;73.99
34696;BME280;75243;51.138;17.370;2024-03-17T06:44:37;100763.16;;;7.05;74.16
34696;BME280;75243;51.138;17.370;2024-03-17T06:48:25;100763.39;;;7.16;73.78
34696;BME280;75243;51.138;17.370;2024-03-17T06:51:25;100768.34;;;7.23;72.80
34696;BME280;75243;51.138;17.370;2024-03-17T06:54:26;100770.52;;;7.45;73.23
34696;BME280;75243;51.138;17.370;2024-03-17T06:57:55;100772.30;;;7.59;71.67
34696;BME280;75243;51.138;17.370;2024-03-17T07:01:21;100775.38;;;7.64;70.96
34696;BME280;75243;51.138;17.370;2024-03-17T07:05:27;100769.34;;;7.62;70.03
34696;BME280;75243;51.138;17.370;2024-03-17T07:08:12;100769.54;;;7.58;68.38
34696;BME280;75243;51.138;17.370;2024-03-17T07:11:42;100773.86;;;7.57;68.18
34696;BME280;75243;51.138;17.370;2024-03-17T07:18:17;100775.75;;;7.84;68.92
34696;BME280;75243;51.138;17.370;2024-03-17T07:21:23;100772.96;;;8.12;67.87
34696;BME280;75243;51.138;17.370;2024-03-17T07:24:33;100769.63;;;8.16;66.08
34696;BME280;75243;51.138;17.370;2024-03-17T07:27:57;100777.71;;;8.10;65.88
34696;BME280;75243;51.138;17.370;2024-03-17T07:35:03;100791.73;;;8.31;66.24
34696;BME280;75243;51.138;17.370;2024-03-17T07:38:35;100795.38;;;8.66;65.68
34696;BME280;75243;51.138;17.370;2024-03-17T07:42:07;100789.55;;;8.40;63.17
34696;BME280;75243;51.138;17.370;2024-03-17T07:45:29;100789.36;;;8.10;63.72
34696;BME280;75243;51.138;17.370;2024-03-17T07:48:37;100783.15;;;8.29;63.83
34696;BME280;75243;51.138;17.370;2024-03-17T07:51:38;100779.04;;;8.47;64.15
34696;BME280;75243;51.138;17.370;2024-03-17T07:54:46;100789.78;;;8.27;61.98
34696;BME280;75243;51.138;17.370;2024-03-17T07:57:56;100789.95;;;7.95;62.42
34696;BME280;75243;51.138;17.370;2024-03-17T08:01:02;100786.31;;;7.72;61.59
34696;BME280;75243;51.138;17.370;2024-03-17T08:04:12;100794.95;;;7.74;62.24
34696;BME280;75243;51.138;17.370;2024-03-17T08:07:53;100790.64;;;7.69;62.12
34696;BME280;75243;51.138;17.370;2024-03-17T08:11:15;100799.38;;;7.13;61.71
34696;BME280;75243;51.138;17.370;2024-03-17T08:14:19;100796.71;;;6.62;61.77
34696;BME280;75243;51.138;17.370;2024-03-17T08:17:19;100801.22;;;6.24;62.65
34696;BME280;75243;51.138;17.370;2024-03-17T08:23:59;100789.73;;;6.42;64.11
34696;BME280;75243;51.138;17.370;2024-03-17T08:27:03;100791.54;;;6.85;64.03
34696;BME280;75243;51.138;17.370;2024-03-17T08:30:10;100784.44;;;7.07;63.72
34696;BME280;75243;51.138;17.370;2024-03-17T08:33:25;100787.10;;;7.48;64.69
34696;BME280;75243;51.138;17.370;2024-03-17T08:36:49;100786.45;;;7.45;63.12
34696;BME280;75243;51.138;17.370;2024-03-17T08:39:53;100793.98;;;7.15;63.75
34696;BME280;75243;51.138;17.370;2024-03-17T08:43:08;100794.20;;;6.87;63.01
34696;BME280;75243;51.138;17.370;2024-03-17T08:46:29;100801.96;;;6.51;62.35
34696;BME280;75243;51.138;17.370;2024-03-17T08:49:32;100806.27;;;6.37;63.55
34696;BME280;75243;51.138;17.370;2024-03-17T08:52:38;100795.83;;;6.62;62.41
34696;BME280;75243;51.138;17.370;2024-03-17T08:55:42;100792.09;;;6.46;61.35
34696;BME280;75243;51.138;17.370;2024-03-17T08:58:47;100798.98;;;6.32;60.98
34696;BME280;75243;51.138;17.370;2024-03-17T09:05:15;100802.35;;;6.34;62.08
34696;BME280;75243;51.138;17.370;2024-03-17T09:08:24;100802.79;;;6.39;61.95
34696;BME280;75243;51.138;17.370;2024-03-17T09:11:26;100799.62;;;6.35;61.68
34696;BME280;75243;51.138;17.370;2024-03-17T09:14:28;100801.95;;;6.28;61.89
34696;BME280;75243;51.138;17.370;2024-03-17T09:17:33;100804.60;;;6.19;62.01
34696;BME280;75243;51.138;17.370;2024-03-17T09:20:43;100800.13;;;6.15;61.78
34696;BME280;75243;51.138;17.370;2024-03-17T09:23:47;100804.98;;;6.16;62.23
34696;BME280;75243;51.138;17.370;2024-03-17T09:27:08;100804.52;;;6.11;61.77
34696;BME280;75243;51.138;17.370;2024-03-17T09:30:23;100807.70;;;5.95;61.51
34696;BME280;75243;51.138;17.370;2024-03-17T09:33:24;100802.35;;;5.89;61.23
34696;BME280;75243;51.138;17.370;2024-03-17T09:36:45;100805.63;;;5.80;61.15
34696;BME280;75243;51.138;17.370;2024-03-17T09:39:58;100807.60;;;5.80;61.56
34696;BME280;75243;51.138;17.370;2024-03-17T09:43:01;100813.44;;;5.81;61.96
34696;BME280;75243;51.138;17.370;2024-03-17T09:46:05;100810.52;;;5.90;61.87
34696;BME280;75243;51.138;17.370;2024-03-17T09:49:26;100808.89;;;6.00;62.25
34696;BME280;75243;51.138;17.370;2024-03-17T09:52:32;100805.23;;;6.15;61.77
34696;BME280;75243;51.138;17.370;2024-03-17T09:55:37;100808.35;;;6.31;61.69
34696;BME280;75243;51.138;17.370;2024-03-17T09:58:41;100805.91;;;6.46;61.39
34696;BME280;75243;51.138;17.370;2024-03-17T10:01:41;100801.38;;;6.93;61.41
34696;BME280;75243;51.138;17.370;2024-03-17T10:04:44;100793.36;;;7.29;60.67
34696;BME280;75243;51.138;17.370;2024-03-17T10:07:59;100793.30;;;7.31;60.41
34696;BME280;75243;51.138;17.370;2024-03-17T10:11:32;100797.51;;;7.25;59.44
34696;BME280;75243;51.138;17.370;2024-03-17T10:14:59;100794.77;;;7.47;59.77
34696;BME280;75243;51.138;17.370;2024-03-17T10:18:00;100789.83;;;8.01;60.46
34696;BME280;75243;51.138;17.370;2024-03-17T10:21:25;100784.77;;;8.40;59.25
34696;BME280;75243;51.138;17.370;2024-03-17T10:24:30;100782.55;;;8.83;58.97
34696;BME280;75243;51.138;17.370;2024-03-17T10:27:32;100780.20;;;8.99;57.90
34696;BME280;75243;51.138;17.370;2024-03-17T10:30:40;100783.82;;;8.71;56.55
34696;BME280;75243;51.138;17.370;2024-03-17T10:33:45;100784.40;;;8.66;56.66
34696;BME280;75243;51.138;17.370;2024-03-17T10:41:03;100775.67;;;9.02;56.25
34696;BME280;75243;51.138;17.370;2024-03-17T10:44:09;100789.36;;;8.50;56.64
34696;BME280;75243;51.138;17.370;2024-03-17T10:47:21;100788.77;;;8.19;56.64
34696;BME280;75243;51.138;17.370;2024-03-17T10:50:30;100787.15;;;8.19;57.70
34696;BME280;75243;51.138;17.370;2024-03-17T10:53:43;100786.77;;;8.44;57.91
34696;BME280;75243;51.138;17.370;2024-03-17T10:56:56;100783.44;;;8.63;56.61
34696;BME280;75243;51.138;17.370;2024-03-17T11:00:17;100778.84;;;8.89;56.86
34696;BME280;75243;51.138;17.370;2024-03-17T11:03:36;100771.02;;;9.22;56.27
34696;BME280;75243;51.138;17.370;2024-03-17T11:10:30;100767.88;;;10.04;55.60
34696;BME280;75243;51.138;17.370;2024-03-17T11:14:07;100756.48;;;10.33;53.08
34696;BME280;75243;51.138;17.370;2024-03-17T11:17:18;100760.82;;;10.32;52.61
34696;BME280;75243;51.138;17.370;2024-03-17T11:20:27;100755.73;;;10.47;53.10
34696;BME280;75243;51.138;17.370;2024-03-17T11:28:02;100756.90;;;10.75;52.77
34696;BME280;75243;51.138;17.370;2024-03-17T11:35:42;100749.33;;;10.28;51.36
34696;BME280;75243;51.138;17.370;2024-03-17T11:39:19;100747.31;;;10.29;51.73
34696;BME280;75243;51.138;17.370;2024-03-17T11:46:59;100741.24;;;9.93;50.34
34696;BME280;75243;51.138;17.370;2024-03-17T11:50:30;100741.48;;;9.40;50.57
34696;BME280;75243;51.138;17.370;2024-03-17T11:53:41;100739.52;;;9.00;51.14
34696;BME280;75243;51.138;17.370;2024-03-17T11:57:13;100737.38;;;8.64;51.60
34696;BME280;75243;51.138;17.370;2024-03-17T12:00:31;100736.53;;;8.29;51.94
34696;BME280;75243;51.138;17.370;2024-03-17T12:03:43;100737.64;;;8.05;52.03
34696;BME280;75243;51.138;17.370;2024-03-17T12:07:13;100738.86;;;7.85;52.65
34696;BME280;75243;51.138;17.370;2024-03-17T12:10:29;100737.95;;;7.63;52.89
34696;BME280;75243;51.138;17.370;2024-03-17T12:13:36;100739.17;;;7.49;53.35
34696;BME280;75243;51.138;17.370;2024-03-17T12:16:37;100732.52;;;7.44;52.86
34696;BME280;75243;51.138;17.370;2024-03-17T12:19:45;100731.29;;;7.40;53.09
34696;BME280;75243;51.138;17.370;2024-03-17T12:23:10;100730.99;;;7.42;54.00
34696;BME280;75243;51.138;17.370;2024-03-17T12:26:19;100732.65;;;7.47;54.26
34696;BME280;75243;51.138;17.370;2024-03-17T12:29:33;100733.00;;;7.63;54.65
34696;BME280;75243;51.138;17.370;2024-03-17T12:32:44;100726.45;;;7.80;54.15
34696;BME280;75243;51.138;17.370;2024-03-17T12:36:10;100727.42;;;7.81;54.32
34696;BME280;75243;51.138;17.370;2024-03-17T12:39:35;100722.98;;;7.83;53.74
34696;BME280;75243;51.138;17.370;2024-03-17T12:42:47;100717.38;;;7.71;54.07
34696;BME280;75243;51.138;17.370;2024-03-17T12:46:29;100715.91;;;7.57;54.28
34696;BME280;75243;51.138;17.370;2024-03-17T12:49:35;100711.70;;;7.49;54.18
34696;BME280;75243;51.138;17.370;2024-03-17T12:52:39;100718.09;;;7.45;54.39
34696;BME280;75243;51.138;17.370;2024-03-17T12:56:04;100717.80;;;7.52;54.48
34696;BME280;75243;51.138;17.370;2024-03-17T12:59:24;100707.48;;;7.77;54.54
34696;BME280;75243;51.138;17.370;2024-03-17T13:03:08;100705.99;;;8.08;54.38
34696;BME280;75243;51.138;17.370;2024-03-17T13:06:31;100696.46;;;8.34;53.67
34696;BME280;75243;51.138;17.370;2024-03-17T13:09:38;100691.20;;;8.55;53.65
34696;BME280;75243;51.138;17.370;2024-03-17T13:12:41;100691.53;;;8.42;51.98
34696;BME280;75243;51.138;17.370;2024-03-17T13:15:43;100693.33;;;8.04;52.66
34696;BME280;75243;51.138;17.370;2024-03-17T13:18:55;100687.70;;;7.92;53.23
34696;BME280;75243;51.138;17.370;2024-03-17T13:22:01;100687.52;;;7.92;53.14
34696;BME280;75243;51.138;17.370;2024-03-17T13:25:20;100687.67;;;7.81;53.46
34696;BME280;75243;51.138;17.370;2024-03-17T13:28:22;100688.80;;;7.83;53.75
34696;BME280;75243;51.138;17.370;2024-03-17T13:31:24;100683.67;;;8.00;53.78
34696;BME280;75243;51.138;17.370;2024-03-17T13:34:33;100688.91;;;8.22;53.84
34696;BME280;75243;51.138;17.370;2024-03-17T13:40:53;100677.23;;;8.28;51.41
34696;BME280;75243;51.138;17.370;2024-03-17T13:43:55;100672.13;;;8.34;51.21
34696;BME280;75243;51.138;17.370;2024-03-17T13:47:04;100668.21;;;8.41;50.67
34696;BME280;75243;51.138;17.370;2024-03-17T13:50:18;100671.11;;;8.48;51.02
34696;BME280;75243;51.138;17.370;2024-03-17T13:53:19;100674.34;;;8.65;50.30
34696;BME280;75243;51.138;17.370;2024-03-17T13:56:22;100672.19;;;8.55;49.13
34696;BME280;75243;51.138;17.370;2024-03-17T13:59:26;100673.61;;;8.33;49.30
34696;BME280;75243;51.138;17.370;2024-03-17T14:02:27;100677.23;;;8.17;49.26
34696;BME280;75243;51.138;17.370;2024-03-17T14:05:31;100672.14;;;8.05;48.93
34696;BME280;75243;51.138;17.370;2024-03-17T14:08:34;100676.38;;;7.98;48.44
34696;BME280;75243;51.138;17.370;2024-03-17T14:11:38;100664.95;;;7.96;47.98
34696;BME280;75243;51.138;17.370;2024-03-17T14:14:39;100668.40;;;7.87;47.92
34696;BME280;75243;51.138;17.370;2024-03-17T14:17:41;100666.69;;;7.71;48.55
34696;BME280;75243;51.138;17.370;2024-03-17T14:20:44;100668.04;;;7.65;48.93
34696;BME280;75243;51.138;17.370;2024-03-17T14:23:48;100665.98;;;7.61;48.77
34696;BME280;75243;51.138;17.370;2024-03-17T14:26:49;100667.64;;;7.56;49.18
34696;BME280;75243;51.138;17.370;2024-03-17T14:29:50;100670.68;;;7.49;49.20
34696;BME280;75243;51.138;17.370;2024-03-17T14:33:04;100661.72;;;7.45;48.97
34696;BME280;75243;51.138;17.370;2024-03-17T14:36:11;100665.68;;;7.40;49.06
34696;BME280;75243;51.138;17.370;2024-03-17T14:39:20;100669.54;;;7.42;49.12
34696;BME280;75243;51.138;17.370;2024-03-17T14:42:31;100679.15;;;7.39;49.02
34696;BME280;75243;51.138;17.370;2024-03-17T14:45:32;100682.59;;;7.33;49.14
34696;BME280;75243;51.138;17.370;2024-03-17T14:48:40;100681.98;;;7.26;49.63
34696;BME280;75243;51.138;17.370;2024-03-17T14:51:52;100675.46;;;7.30;49.30
34696;BME280;75243;51.138;17.370;2024-03-17T14:55:07;100678.42;;;7.43;49.17
34696;BME280;75243;51.138;17.370;2024-03-17T14:58:12;100673.88;;;7.43;49.75
34696;BME280;75243;51.138;17.370;2024-03-17T15:01:16;100670.46;;;7.44;50.35
34696;BME280;75243;51.138;17.370;2024-03-17T15:07:35;100671.69;;;7.37;50.03
34696;BME280;75243;51.138;17.370;2024-03-17T15:10:46;100675.30;;;7.20;50.43
34696;BME280;75243;51.138;17.370;2024-03-17T15:14:06;100676.52;;;7.06;51.02
34696;BME280;75243;51.138;17.370;2024-03-17T15:17:11;100678.95;;;6.98;51.44
34696;BME280;75243;51.138;17.370;2024-03-17T15:20:18;100674.55;;;7.00;51.67
34696;BME280;75243;51.138;17.370;2024-03-17T15:23:22;100675.47;;;7.08;52.07
34696;BME280;75243;51.138;17.370;2024-03-17T15:26:37;100679.69;;;7.12;51.90
34696;BME280;75243;51.138;17.370;2024-03-17T15:29:40;100672.57;;;7.11;51.48
34696;BME280;75243;51.138;17.370;2024-03-17T15:32:46;100673.61;;;7.05;51.55
34696;BME280;75243;51.138;17.370;2024-03-17T15:35:48;100674.48;;;7.01;51.67
34696;BME280;75243;51.138;17.370;2024-03-17T15:38:50;100674.48;;;6.92;52.19
34696;BME280;75243;51.138;17.370;2024-03-17T15:42:11;100681.53;;;6.84;52.57
34696;BME280;75243;51.138;17.370;2024-03-17T15:45:24;100684.48;;;6.76;53.01
34696;BME280;75243;51.138;17.370;2024-03-17T15:48:45;100682.20;;;6.65;53.11
34696;BME280;75243;51.138;17.370;2024-03-17T15:51:47;100682.79;;;6.54;53.49
34696;BME280;75243;51.138;17.370;2024-03-17T15:54:50;100685.85;;;6.44;53.89
34696;BME280;75243;51.138;17.370;2024-03-17T15:57:53;100686.67;;;6.41;54.44
34696;BME280;75243;51.138;17.370;2024-03-17T16:00:55;100689.29;;;6.30;54.51
34696;BME280;75243;51.138;17.370;2024-03-17T16:04:02;100693.55;;;6.21;54.73
34696;BME280;75243;51.138;17.370;2024-03-17T16:07:05;100693.65;;;6.11;54.99
34696;BME280;75243;51.138;17.370;2024-03-17T16:10:39;100698.80;;;6.04;54.99
34696;BME280;75243;51.138;17.370;2024-03-17T16:13:47;100701.11;;;5.97;55.33
34696;BME280;75243;51.138;17.370;2024-03-17T16:17:06;100701.21;;;5.91;55.63
34696;BME280;75243;51.138;17.370;2024-03-17T16:23:53;100709.90;;;5.79;55.87
34696;BME280;75243;51.138;17.370;2024-03-17T16:27:15;100711.16;;;5.74;56.13
34696;BME280;75243;51.138;17.370;2024-03-17T16:30:27;100713.02;;;5.68;56.42
34696;BME280;75243;51.138;17.370;2024-03-17T16:33:29;100712.92;;;5.63;56.44
34696;BME280;75243;51.138;17.370;2024-03-17T16:36:40;100717.09;;;5.59;56.55
34696;BME280;75243;51.138;17.370;2024-03-17T16:39:46;100717.33;;;5.56;56.92
34696;BME280;75243;51.138;17.370;2024-03-17T16:58:06;100732.16;;;5.30;58.67
34696;BME280;75243;51.138;17.370;2024-03-17T17:01:42;100735.46;;;5.25;58.85
34696;BME280;75243;51.138;17.370;2024-03-17T17:05:48;100732.98;;;5.17;59.06
34696;BME280;75243;51.138;17.370;2024-03-17T17:09:28;100733.77;;;5.11;59.10
34696;BME280;75243;51.138;17.370;2024-03-17T17:20:27;100739.05;;;4.97;59.41
34696;BME280;75243;51.138;17.370;2024-03-17T17:24:33;100742.05;;;4.94;59.79
34696;BME280;75243;51.138;17.370;2024-03-17T17:28:05;100748.97;;;4.90;59.54
34696;BME280;75243;51.138;17.370;2024-03-17T17:35:23;100752.05;;;4.75;59.16
34696;BME280;75243;51.138;17.370;2024-03-17T17:38:50;100749.11;;;4.70;59.34
34696;BME280;75243;51.138;17.370;2024-03-17T17:42:36;100753.91;;;4.66;59.53
34696;BME280;75243;51.138;17.370;2024-03-17T17:46:25;100750.85;;;4.65;59.61
34696;BME280;75243;51.138;17.370;2024-03-17T17:49:47;100754.65;;;4.62;59.61
34696;BME280;75243;51.138;17.370;2024-03-17T17:53:13;100755.26;;;4.58;59.59
34696;BME280;75243;51.138;17.370;2024-03-17T17:56:43;100753.80;;;4.54;59.95
34696;BME280;75243;51.138;17.370;2024-03-17T18:00:25;100749.31;;;4.51;60.03
34696;BME280;75243;51.138;17.370;2024-03-17T18:04:09;100749.11;;;4.46;59.89
34696;BME280;75243;51.138;17.370;2024-03-17T18:07:33;100750.92;;;4.43;59.84
34696;BME280;75243;51.138;17.370;2024-03-17T18:10:48;100755.69;;;4.40;60.29
34696;BME280;75243;51.138;17.370;2024-03-17T18:14:18;100754.67;;;4.35;60.30
34696;BME280;75243;51.138;17.370;2024-03-17T18:17:35;100753.34;;;4.31;60.19
34696;BME280;75243;51.138;17.370;2024-03-17T18:21:19;100757.86;;;4.27;60.35
34696;BME280;75243;51.138;17.370;2024-03-17T18:25:06;100757.77;;;4.23;60.79
34696;BME280;75243;51.138;17.370;2024-03-17T18:28:41;100757.36;;;4.21;60.67
34696;BME280;75243;51.138;17.370;2024-03-17T18:32:24;100759.67;;;4.21;61.12
34696;BME280;75243;51.138;17.370;2024-03-17T18:36:28;100761.45;;;4.19;60.80
34696;BME280;75243;51.138;17.370;2024-03-17T18:40:26;100761.36;;;4.15;61.15
34696;BME280;75243;51.138;17.370;2024-03-17T18:44:01;100759.70;;;4.11;61.18
34696;BME280;75243;51.138;17.370;2024-03-17T18:47:41;100763.15;;;4.04;61.02
34696;BME280;75243;51.138;17.370;2024-03-17T18:50:55;100762.20;;;4.00;61.35
34696;BME280;75243;51.138;17.370;2024-03-17T18:54:28;100760.86;;;3.94;61.01
34696;BME280;75243;51.138;17.370;2024-03-17T19:01:56;100761.98;;;3.83;61.25
34696;BME280;75243;51.138;17.370;2024-03-17T19:05:45;100759.27;;;3.80;61.09
34696;BME280;75243;51.138;17.370;2024-03-17T19:09:13;100759.17;;;3.76;61.45
34696;BME280;75243;51.138;17.370;2024-03-17T19:13:45;100753.88;;;3.69;61.35
34696;BME280;75243;51.138;17.370;2024-03-17T19:17:44;100755.14;;;3.64;61.63
34696;BME280;75243;51.138;17.370;2024-03-17T19:21:33;100760.24;;;3.61;61.58
34696;BME280;75243;51.138;17.370;2024-03-17T19:25:22;100762.94;;;3.60;62.04
34696;BME280;75243;51.138;17.370;2024-03-17T19:29:03;100763.57;;;3.58;61.65
34696;BME280;75243;51.138;17.370;2024-03-17T19:32:19;100763.80;;;3.55;61.85
34696;BME280;75243;51.138;17.370;2024-03-17T19:40:21;100765.36;;;3.58;61.96
34696;BME280;75243;51.138;17.370;2024-03-17T19:43:37;100759.08;;;3.55;61.71
34696;BME280;75243;51.138;17.370;2024-03-17T19:47:24;100756.43;;;3.53;61.88
34696;BME280;75243;51.138;17.370;2024-03-17T19:51:20;100761.52;;;3.50;61.87
34696;BME280;75243;51.138;17.370;2024-03-17T19:54:50;100769.77;;;3.50;61.92
34696;BME280;75243;51.138;17.370;2024-03-17T19:58:07;100772.08;;;3.49;61.88
34696;BME280;75243;51.138;17.370;2024-03-17T20:10:18;100762.56;;;3.52;62.20
34696;BME280;75243;51.138;17.370;2024-03-17T20:13:39;100764.53;;;3.54;62.19
34696;BME280;75243;51.138;17.370;2024-03-17T20:17:04;100761.06;;;3.56;62.26
34696;BME280;75243;51.138;17.370;2024-03-17T20:24:32;100751.02;;;3.50;62.42
34696;BME280;75243;51.138;17.370;2024-03-17T20:28:05;100752.67;;;3.51;62.52
34696;BME280;75243;51.138;17.370;2024-03-17T20:31:59;100748.99;;;3.51;62.65
34696;BME280;75243;51.138;17.370;2024-03-17T20:35:13;100755.81;;;3.51;62.42
34696;BME280;75243;51.138;17.370;2024-03-17T20:42:30;100748.98;;;3.51;62.65
34696;BME280;75243;51.138;17.370;2024-03-17T20:46:04;100749.14;;;3.52;62.57
34696;BME280;75243;51.138;17.370;2024-03-17T20:50:01;100751.75;;;3.50;62.65
34696;BME280;75243;51.138;17.370;2024-03-17T20:54:25;100760.41;;;3.43;62.56
34696;BME280;75243;51.138;17.370;2024-03-17T20:57:29;100762.82;;;3.39;62.95
34696;BME280;75243;51.138;17.370;2024-03-17T21:04:31;100761.24;;;3.28;62.81
34696;BME280;75243;51.138;17.370;2024-03-17T21:08:02;100759.77;;;3.24;62.94
34696;BME280;75243;51.138;17.370;2024-03-17T21:19:30;100748.02;;;3.19;62.84
34696;BME280;75243;51.138;17.370;2024-03-17T21:23:47;100743.40;;;3.16;62.96
34696;BME280;75243;51.138;17.370;2024-03-17T21:27:23;100743.61;;;3.12;62.87
34696;BME280;75243;51.138;17.370;2024-03-17T21:35:32;100737.85;;;3.12;63.40
34696;BME280;75243;51.138;17.370;2024-03-17T21:39:16;100735.99;;;3.11;63.29
34696;BME280;75243;51.138;17.370;2024-03-17T21:43:11;100733.34;;;3.12;62.99
34696;BME280;75243;51.138;17.370;2024-03-17T21:46:44;100729.08;;;3.10;63.23
34696;BME280;75243;51.138;17.370;2024-03-17T21:50:53;100729.02;;;3.06;63.42
34696;BME280;75243;51.138;17.370;2024-03-17T21:55:32;100729.48;;;3.04;63.51
34696;BME280;75243;51.138;17.370;2024-03-17T22:02:56;100733.80;;;3.00;63.37
34696;BME280;75243;51.138;17.370;2024-03-17T22:06:25;100733.03;;;2.98;63.60
34696;BME280;75243;51.138;17.370;2024-03-17T22:10:26;100736.53;;;2.98;63.69
34696;BME280;75243;51.138;17.370;2024-03-17T22:14:05;100739.77;;;2.97;63.79
34696;BME280;75243;51.138;17.370;2024-03-17T22:17:41;100737.42;;;2.98;63.89
34696;BME280;75243;51.138;17.370;2024-03-17T22:21:16;100737.14;;;2.95;63.88
34696;BME280;75243;51.138;17.370;2024-03-17T22:25:15;100737.85;;;2.92;63.96
34696;BME280;75243;51.138;17.370;2024-03-17T22:32:54;100740.86;;;2.94;64.37
34696;BME280;75243;51.138;17.370;2024-03-17T22:41:00;100731.61;;;2.90;64.23
34696;BME280;75243;51.138;17.370;2024-03-17T22:44:44;100737.42;;;2.85;64.25
34696;BME280;75243;51.138;17.370;2024-03-17T22:48:09;100735.08;;;2.81;64.46
34696;BME280;75243;51.138;17.370;2024-03-17T22:51:53;100738.02;;;2.84;64.64
34696;BME280;75243;51.138;17.370;2024-03-17T22:55:53;100738.23;;;2.83;64.49
34696;BME280;75243;51.138;17.370;2024-03-17T23:03:30;100739.44;;;2.73;64.61
34696;BME280;75243;51.138;17.370;2024-03-17T23:06:46;100739.58;;;2.65;64.47
34696;BME280;75243;51.138;17.370;2024-03-17T23:14:50;100732.51;;;2.62;64.66
34696;BME280;75243;51.138;17.370;2024-03-17T23:18:51;100732.39;;;2.58;64.29
34696;BME280;75243;51.138;17.370;2024-03-17T23:22:21;100729.00;;;2.48;64.13
34696;BME280;75243;51.138;17.370;2024-03-17T23:26:23;100730.00;;;2.46;64.44
34696;BME280;75243;51.138;17.370;2024-03-17T23:30:13;100738.04;;;2.43;64.49
34696;BME280;75243;51.138;17.370;2024-03-17T23:34:18;100739.02;;;2.39;64.39
34696;BME280;75243;51.138;17.370;2024-03-17T23:41:55;100735.29;;;2.35;64.80
34696;BME280;75243;51.138;17.370;2024-03-17T23:45:40;100735.15;;;2.32;64.90
34696;BME280;75243;51.138;17.370;2024-03-17T23:49:21;100735.17;;;2.23;65.37
34696;BME280;75243;51.138;17.370;2024-03-17T23:52:23;100733.23;;;2.17;65.37